Time;durP1;ratioP1;P1;durP2;ratioP2;P2;SDS_P1;SDS_P2;PMS_P1;PMS_P2;Temp;Humidity;BMP_temperature;BMP_pressure;BME280_temperature;BME280_humidity;BME280_pressure;Samples;Min_cycle;Max_cycle;Signal;HPM_P1;HPM_P2
2021/12/24 00:00:28;;;;;;;8.23;5.18;;;;;;;;;;5091220;28;20484;-59
2021/12/24 00:02:54;;;;;;;9.18;5.85;;;;;;;;;;5097504;28;20089;-59
2021/12/24 00:05:20;;;;;;;7.30;5.57;;;;;;;;;;5092955;28;20456;-59
2021/12/24 00:07:45;;;;;;;7.20;5.45;;;;;;;;;;5095515;28;20059;-59
2021/12/24 00:10:11;;;;;;;7.50;5.15;;;;;;;;;;5093869;28;20075;-59
2021/12/24 00:12:41;;;;;;;8.38;5.30;;;;;;;;;;5093088;28;20509;-58
2021/12/24 00:15:22;;;;;;;10.98;5.65;;;;;;;;;;5088529;28;20132;-59
2021/12/24 00:17:47;;;;;;;9.63;5.70;;;;;;;;;;5088497;28;20095;-59
2021/12/24 00:36:26;;;;;;;5.97;4.22;;;;;;;;;;5011506;28;20045;-59
2021/12/24 00:38:52;;;;;;;4.43;3.70;;;;;;;;;;5021659;28;20037;-59
2021/12/24 00:41:17;;;;;;;4.72;4.25;;;;;;;;;;5022018;28;20081;-59
2021/12/24 00:43:42;;;;;;;6.15;4.15;;;;;;;;;;5028377;28;20127;-59
2021/12/24 00:46:07;;;;;;;5.22;4.10;;;;;;;;;;5027954;28;20041;-58
2021/12/24 00:48:33;;;;;;;4.95;4.20;;;;;;;;;;5028575;28;20037;-58
2021/12/24 00:55:58;;;;;;;5.57;3.67;;;;;;;;;;5039926;28;20033;-58
2021/12/24 00:58:23;;;;;;;5.82;4.03;;;;;;;;;;5021727;28;20441;-59
2021/12/24 01:00:49;;;;;;;4.93;3.70;;;;;;;;;;5073726;28;20032;-58
2021/12/24 01:03:14;;;;;;;6.07;3.95;;;;;;;;;;5092042;28;20024;-59
2021/12/24 01:05:40;;;;;;;5.35;3.63;;;;;;;;;;5092272;28;20036;-60
2021/12/24 01:08:06;;;;;;;4.32;3.47;;;;;;;;;;5092558;28;20055;-58
2021/12/24 01:10:34;;;;;;;6.10;3.55;;;;;;;;;;5092326;28;20449;-58
2021/12/24 01:12:59;;;;;;;4.68;3.67;;;;;;;;;;5091998;28;20071;-60
2021/12/24 01:15:25;;;;;;;4.32;3.70;;;;;;;;;;5091662;28;20080;-59
2021/12/24 01:18:00;;;;;;;5.70;3.53;;;;;;;;;;5092567;28;20032;-60
2021/12/24 01:20:40;;;;;;;4.28;3.33;;;;;;;;;;5087261;28;20036;-59
2021/12/24 01:25:55;;;;;;;3.90;3.38;;;;;;;;;;5092792;28;20039;-59
2021/12/24 01:39:38;;;;;;;3.58;2.72;;;;;;;;;;5058698;28;20191;-60
2021/12/24 01:44:48;;;;;;;2.88;2.42;;;;;;;;;;5067472;28;20044;-60
2021/12/24 01:47:13;;;;;;;3.15;2.67;;;;;;;;;;5065099;28;20500;-58
2021/12/24 01:49:38;;;;;;;2.78;2.35;;;;;;;;;;5068855;28;20605;-59
2021/12/24 01:52:04;;;;;;;3.47;2.83;;;;;;;;;;5063191;28;20118;-59
2021/12/24 01:54:29;;;;;;;2.90;2.42;;;;;;;;;;5063853;28;20029;-59
2021/12/24 01:56:54;;;;;;;4.40;2.92;;;;;;;;;;5055990;28;20064;-60
2021/12/24 01:59:20;;;;;;;2.80;2.30;;;;;;;;;;5065659;28;20029;-58
2021/12/24 02:01:45;;;;;;;2.97;2.30;;;;;;;;;;5054811;28;20037;-59
2021/12/24 02:04:14;;;;;;;2.72;2.28;;;;;;;;;;5054630;28;20040;-59
2021/12/24 02:06:39;;;;;;;2.47;2.15;;;;;;;;;;5054875;28;20382;-59
2021/12/24 02:09:05;;;;;;;3.00;2.17;;;;;;;;;;5090130;28;20036;-59
2021/12/24 02:11:37;;;;;;;3.03;2.47;;;;;;;;;;5091054;28;20024;-59
2021/12/24 02:14:03;;;;;;;4.50;2.58;;;;;;;;;;5097397;28;20095;-59
2021/12/24 02:16:46;;;;;;;4.90;2.13;;;;;;;;;;5097844;28;20044;-60
2021/12/24 02:29:54;;;;;;;3.25;2.20;;;;;;;;;;5094127;28;20055;-60
2021/12/24 02:32:19;;;;;;;3.05;2.30;;;;;;;;;;5099637;28;20024;-58
2021/12/24 02:34:44;;;;;;;4.30;2.38;;;;;;;;;;5101393;28;20492;-59
2021/12/24 02:37:09;;;;;;;2.63;1.67;;;;;;;;;;5097945;27;20047;-60
2021/12/24 02:39:35;;;;;;;2.85;2.00;;;;;;;;;;5097807;27;20032;-59
2021/12/24 02:42:10;;;;;;;2.58;2.03;;;;;;;;;;5098055;27;20570;-59
2021/12/24 02:44:36;;;;;;;2.10;1.73;;;;;;;;;;5097954;28;20464;-59
2021/12/24 02:47:12;;;;;;;2.33;1.95;;;;;;;;;;5098623;28;20024;-60
2021/12/24 02:55:09;;;;;;;1.90;1.60;;;;;;;;;;5066996;28;20547;-59
2021/12/24 02:57:35;;;;;;;2.50;1.77;;;;;;;;;;5060424;28;20505;-59
2021/12/24 03:00:07;;;;;;;1.30;1.20;;;;;;;;;;5060957;28;20146;-60
2021/12/24 03:02:33;;;;;;;1.63;1.40;;;;;;;;;;5060445;28;20541;-59
2021/12/24 03:04:59;;;;;;;2.10;1.50;;;;;;;;;;5066468;28;20514;-59
2021/12/24 03:07:24;;;;;;;1.63;1.52;;;;;;;;;;5061152;28;20029;-59
2021/12/24 03:09:50;;;;;;;2.75;1.58;;;;;;;;;;5064152;28;20071;-59
2021/12/24 03:12:15;;;;;;;1.50;1.40;;;;;;;;;;5063856;28;20039;-59
2021/12/24 03:14:40;;;;;;;1.90;1.50;;;;;;;;;;5070028;28;20594;-58
2021/12/24 03:17:11;;;;;;;1.52;1.42;;;;;;;;;;5063884;28;20052;-60
2021/12/24 03:19:36;;;;;;;1.40;1.30;;;;;;;;;;5063573;28;20137;-59
2021/12/24 03:24:50;;;;;;;3.38;1.63;;;;;;;;;;4995308;28;20062;-59
2021/12/24 03:27:16;;;;;;;1.75;1.40;;;;;;;;;;4992520;28;20066;-59
2021/12/24 03:29:41;;;;;;;2.05;1.83;;;;;;;;;;4999972;28;20042;-59
2021/12/24 03:32:07;;;;;;;2.00;1.65;;;;;;;;;;5012344;28;20076;-57
2021/12/24 03:34:33;;;;;;;2.42;2.22;;;;;;;;;;5007443;28;20467;-59
2021/12/24 03:36:58;;;;;;;2.28;1.73;;;;;;;;;;5011946;28;20100;-59
2021/12/24 03:39:23;;;;;;;3.20;2.03;;;;;;;;;;5012293;28;20042;-59
2021/12/24 03:41:48;;;;;;;3.40;2.05;;;;;;;;;;5012018;28;20442;-59
2021/12/24 03:44:15;;;;;;;2.33;2.10;;;;;;;;;;5011840;28;20038;-58
2021/12/24 03:49:21;;;;;;;3.67;2.20;;;;;;;;;;5007514;28;20041;-59
2021/12/24 03:52:01;;;;;;;3.17;2.08;;;;;;;;;;5011686;28;20129;-59
2021/12/24 03:57:10;;;;;;;3.92;2.40;;;;;;;;;;5012046;28;20040;-59
2021/12/24 03:59:35;;;;;;;5.78;2.65;;;;;;;;;;5011936;28;20034;-60
2021/12/24 04:02:03;;;;;;;4.60;2.50;;;;;;;;;;5058989;28;20047;-59
2021/12/24 04:04:28;;;;;;;3.85;2.70;;;;;;;;;;5091226;28;20032;-60
2021/12/24 04:06:53;;;;;;;3.35;2.35;;;;;;;;;;5093645;28;20044;-59
2021/12/24 04:09:20;;;;;;;4.57;2.58;;;;;;;;;;5093551;28;20530;-59
2021/12/24 04:11:45;;;;;;;3.15;2.20;;;;;;;;;;5093387;28;20032;-59
2021/12/24 04:14:10;;;;;;;3.28;2.10;;;;;;;;;;5093858;28;20016;-58
2021/12/24 04:16:35;;;;;;;5.95;3.50;;;;;;;;;;5110579;28;20472;-59
2021/12/24 04:19:21;;;;;;;4.63;2.13;;;;;;;;;;5092591;28;20489;-59
2021/12/24 04:27:14;;;;;;;3.50;2.33;;;;;;;;;;5100294;28;20136;-60
2021/12/24 04:29:40;;;;;;;7.00;2.70;;;;;;;;;;5099218;28;20115;-58
2021/12/24 04:32:21;;;;;;;4.93;3.08;;;;;;;;;;5098992;28;20472;-58
2021/12/24 04:34:50;;;;;;;7.00;2.83;;;;;;;;;;5093968;28;20047;-58
2021/12/24 05:04:13;;;;;;;9.15;2.53;;;;;;;;;;5098891;28;20522;-58
2021/12/24 05:06:48;;;;;;;8.00;2.58;;;;;;;;;;5099779;28;20039;-59
2021/12/24 05:09:15;;;;;;;5.85;2.40;;;;;;;;;;5106379;28;20035;-59
2021/12/24 05:11:40;;;;;;;7.25;3.40;;;;;;;;;;5102613;28;20391;-58
2021/12/24 05:14:06;;;;;;;4.93;2.58;;;;;;;;;;5107007;28;20016;-58
2021/12/24 05:16:48;;;;;;;5.55;2.42;;;;;;;;;;5093870;28;20523;-59
2021/12/24 05:21:48;;;;;;;7.07;3.03;;;;;;;;;;5091709;28;20035;-58
2021/12/24 05:24:15;;;;;;;5.45;2.83;;;;;;;;;;5092325;28;20540;-58
2021/12/24 05:26:42;;;;;;;6.43;2.78;;;;;;;;;;5091887;28;20047;-59
2021/12/24 05:29:08;;;;;;;5.50;2.10;;;;;;;;;;5092407;28;20032;-59
2021/12/24 05:31:33;;;;;;;12.43;3.17;;;;;;;;;;5092328;28;20488;-60
2021/12/24 05:33:59;;;;;;;5.47;2.17;;;;;;;;;;5073851;28;20024;-59
2021/12/24 05:36:24;;;;;;;8.60;2.15;;;;;;;;;;5091854;28;20075;-58
2021/12/24 05:38:50;;;;;;;7.72;1.95;;;;;;;;;;5092080;28;20035;-58
2021/12/24 05:41:15;;;;;;;6.57;2.15;;;;;;;;;;5091431;28;20059;-60
2021/12/24 05:43:40;;;;;;;6.13;1.75;;;;;;;;;;5092362;28;20028;-59
2021/12/24 05:46:06;;;;;;;6.88;2.38;;;;;;;;;;5091640;28;20036;-59
2021/12/24 05:48:31;;;;;;;5.85;2.65;;;;;;;;;;5090739;28;20028;-58
2021/12/24 05:50:57;;;;;;;6.00;1.58;;;;;;;;;;5091962;28;20400;-58
2021/12/24 05:53:23;;;;;;;5.43;1.85;;;;;;;;;;5091651;28;20024;-59
2021/12/24 05:55:48;;;;;;;3.55;1.95;;;;;;;;;;5092024;28;20039;-58
2021/12/24 05:58:13;;;;;;;9.07;2.20;;;;;;;;;;5074046;28;20039;-59
2021/12/24 06:00:39;;;;;;;6.22;2.25;;;;;;;;;;5091514;28;20392;-59
2021/12/24 06:03:06;;;;;;;5.60;2.17;;;;;;;;;;5091145;28;20115;-59
2021/12/24 06:05:32;;;;;;;4.95;2.05;;;;;;;;;;5091605;28;20101;-59
2021/12/24 06:07:57;;;;;;;5.40;1.83;;;;;;;;;;5089376;28;20472;-59
2021/12/24 06:10:22;;;;;;;6.22;1.63;;;;;;;;;;5091657;28;20067;-58
2021/12/24 06:12:47;;;;;;;6.75;1.80;;;;;;;;;;5091386;28;20032;-59
2021/12/24 06:15:15;;;;;;;5.35;1.67;;;;;;;;;;5091341;28;20064;-58
2021/12/24 06:17:40;;;;;;;2.47;1.30;;;;;;;;;;5091847;28;20028;-58
2021/12/24 06:20:07;;;;;;;4.03;1.80;;;;;;;;;;5092074;28;20093;-58
2021/12/24 06:22:32;;;;;;;6.15;1.50;;;;;;;;;;5091030;28;20036;-59
2021/12/24 06:24:57;;;;;;;6.75;1.80;;;;;;;;;;5091577;28;20043;-58
2021/12/24 06:27:23;;;;;;;6.40;1.85;;;;;;;;;;5090917;28;20037;-58
2021/12/24 06:29:48;;;;;;;7.57;1.92;;;;;;;;;;5115045;28;20503;-58
2021/12/24 06:32:14;;;;;;;7.82;2.10;;;;;;;;;;5091020;28;20360;-57
2021/12/24 06:34:39;;;;;;;5.50;1.80;;;;;;;;;;5091355;28;20020;-59
2021/12/24 06:37:04;;;;;;;5.93;1.63;;;;;;;;;;5091438;28;20058;-57
2021/12/24 06:39:29;;;;;;;6.47;2.17;;;;;;;;;;5091378;28;20113;-59
2021/12/24 06:41:55;;;;;;;5.43;1.48;;;;;;;;;;5091207;28;20024;-59
2021/12/24 06:44:21;;;;;;;3.92;1.50;;;;;;;;;;5091401;28;20468;-58
2021/12/24 06:46:46;;;;;;;6.40;2.03;;;;;;;;;;5091524;28;20052;-58
2021/12/24 06:49:12;;;;;;;6.72;1.60;;;;;;;;;;5090873;28;20064;-58
2021/12/24 06:51:37;;;;;;;7.82;2.45;;;;;;;;;;5098117;28;20036;-58
2021/12/24 06:54:03;;;;;;;9.50;2.15;;;;;;;;;;5095209;28;20028;-58
2021/12/24 06:56:28;;;;;;;4.80;1.20;;;;;;;;;;5092443;28;20042;-58
2021/12/24 06:58:53;;;;;;;3.95;1.48;;;;;;;;;;5100792;28;20119;-58
2021/12/24 07:01:19;;;;;;;5.97;1.60;;;;;;;;;;5094965;28;20117;-58
2021/12/24 07:03:44;;;;;;;7.03;1.48;;;;;;;;;;5096095;28;20051;-58
2021/12/24 07:06:09;;;;;;;5.70;1.75;;;;;;;;;;5095893;28;20081;-58
2021/12/24 07:08:35;;;;;;;4.22;1.45;;;;;;;;;;5094030;28;20031;-59
2021/12/24 07:11:01;;;;;;;4.10;1.85;;;;;;;;;;5095436;28;20107;-58
2021/12/24 07:13:26;;;;;;;10.55;1.90;;;;;;;;;;5094446;28;20044;-59
2021/12/24 07:15:51;;;;;;;6.85;2.10;;;;;;;;;;5098688;28;20051;-58
2021/12/24 07:18:17;;;;;;;7.07;1.70;;;;;;;;;;5102708;28;20025;-58
2021/12/24 07:20:42;;;;;;;8.77;1.88;;;;;;;;;;5104009;28;20028;-58
2021/12/24 07:23:07;;;;;;;5.35;1.90;;;;;;;;;;5095703;28;20028;-58
2021/12/24 07:25:33;;;;;;;4.60;1.10;;;;;;;;;;5097793;28;20050;-59
2021/12/24 07:27:58;;;;;;;4.43;1.58;;;;;;;;;;5096495;28;20028;-59
2021/12/24 07:30:23;;;;;;;9.50;1.80;;;;;;;;;;5100028;28;20032;-59
2021/12/24 07:32:49;;;;;;;6.63;2.45;;;;;;;;;;5096530;28;20388;-59
2021/12/24 07:35:14;;;;;;;7.90;2.20;;;;;;;;;;5100231;28;20024;-58
2021/12/24 07:37:41;;;;;;;5.65;1.48;;;;;;;;;;5094141;28;20472;-60
2021/12/24 07:40:07;;;;;;;8.02;1.88;;;;;;;;;;5093538;28;20046;-59
2021/12/24 07:42:32;;;;;;;7.15;1.60;;;;;;;;;;5093894;28;20032;-59
2021/12/24 07:44:58;;;;;;;9.77;2.10;;;;;;;;;;5094207;28;20036;-59
2021/12/24 07:47:39;;;;;;;8.73;1.77;;;;;;;;;;5093811;28;20078;-59
2021/12/24 07:51:55;;;;;;;6.22;1.33;;;;;;;;;;5094291;28;20047;-59
2021/12/24 07:53:02;;;;;;;3.78;1.38;;;;;;;;;;5096961;28;20054;-59
2021/12/24 07:55:28;;;;;;;8.48;1.60;;;;;;;;;;5093765;28;20078;-59
2021/12/24 07:57:53;;;;;;;6.90;1.60;;;;;;;;;;5093427;28;20446;-60
2021/12/24 08:00:22;;;;;;;9.32;2.08;;;;;;;;;;5094153;28;20032;-59
2021/12/24 08:02:47;;;;;;;3.78;1.40;;;;;;;;;;5093611;28;20063;-59
2021/12/24 08:05:13;;;;;;;5.40;2.30;;;;;;;;;;5093635;28;20492;-58
2021/12/24 08:07:38;;;;;;;6.65;1.90;;;;;;;;;;5094316;28;20047;-59
2021/12/24 08:10:04;;;;;;;5.88;2.00;;;;;;;;;;5093155;28;20070;-59
2021/12/24 08:12:30;;;;;;;8.60;1.20;;;;;;;;;;5087489;28;20025;-58
2021/12/24 08:14:55;;;;;;;7.05;1.73;;;;;;;;;;5095580;28;20047;-59
2021/12/24 08:17:21;;;;;;;8.73;1.90;;;;;;;;;;5097077;28;20067;-58
2021/12/24 08:19:46;;;;;;;7.43;1.75;;;;;;;;;;5100885;28;20089;-59
2021/12/24 08:22:12;;;;;;;4.68;1.17;;;;;;;;;;5077311;28;20423;-59
2021/12/24 08:24:37;;;;;;;7.72;1.75;;;;;;;;;;5109200;28;20138;-59
2021/12/24 08:27:03;;;;;;;4.65;1.77;;;;;;;;;;5104322;28;20407;-59
2021/12/24 08:29:28;;;;;;;9.25;1.60;;;;;;;;;;5101039;28;20036;-57
2021/12/24 08:31:53;;;;;;;9.93;1.70;;;;;;;;;;5095185;28;20032;-58
2021/12/24 08:34:19;;;;;;;5.60;1.73;;;;;;;;;;5103350;28;20047;-59
2021/12/24 08:36:46;;;;;;;7.28;2.00;;;;;;;;;;5103817;28;20051;-59
2021/12/24 08:39:11;;;;;;;7.10;1.77;;;;;;;;;;5078436;28;20512;-59
2021/12/24 08:41:36;;;;;;;7.53;1.88;;;;;;;;;;5110446;28;20122;-59
2021/12/24 08:44:03;;;;;;;9.82;2.03;;;;;;;;;;5105218;28;20085;-59
2021/12/24 08:46:29;;;;;;;10.25;1.98;;;;;;;;;;5100788;28;21751;-59
2021/12/24 08:48:54;;;;;;;10.45;1.88;;;;;;;;;;5098008;28;20031;-59
2021/12/24 08:51:19;;;;;;;9.30;1.85;;;;;;;;;;5097522;28;20039;-59
2021/12/24 08:53:45;;;;;;;5.30;1.35;;;;;;;;;;5099282;28;20406;-59
2021/12/24 08:56:10;;;;;;;9.60;2.00;;;;;;;;;;5109521;28;20024;-60
2021/12/24 08:58:37;;;;;;;7.53;2.28;;;;;;;;;;5092675;28;20024;-59
2021/12/24 09:01:04;;;;;;;13.00;2.00;;;;;;;;;;5095781;28;20031;-59
2021/12/24 09:03:29;;;;;;;6.97;1.80;;;;;;;;;;5102375;28;20032;-57
2021/12/24 09:05:54;;;;;;;9.38;1.63;;;;;;;;;;5098059;28;20039;-59
2021/12/24 09:08:19;;;;;;;6.07;2.00;;;;;;;;;;5107576;28;20011;-59
2021/12/24 09:10:45;;;;;;;6.72;1.77;;;;;;;;;;5093165;28;20414;-59
2021/12/24 09:13:10;;;;;;;7.88;1.63;;;;;;;;;;5093514;28;20036;-59
2021/12/24 09:15:37;;;;;;;8.20;1.88;;;;;;;;;;5100427;28;20054;-59
2021/12/24 09:18:03;;;;;;;4.85;1.95;;;;;;;;;;5092072;28;20024;-59
2021/12/24 09:20:34;;;;;;;8.93;1.42;;;;;;;;;;5091652;28;20031;-58
2021/12/24 09:23:01;;;;;;;7.43;1.63;;;;;;;;;;5091859;28;20016;-59
2021/12/24 09:25:27;;;;;;;8.50;2.60;;;;;;;;;;5101501;28;20032;-59
2021/12/24 09:27:52;;;;;;;9.50;1.80;;;;;;;;;;5094877;28;20031;-59
2021/12/24 09:30:18;;;;;;;7.55;2.00;;;;;;;;;;5094773;28;20119;-59
2021/12/24 09:32:43;;;;;;;10.02;2.00;;;;;;;;;;5096672;28;20059;-60
2021/12/24 09:35:10;;;;;;;7.95;2.00;;;;;;;;;;5090864;28;20028;-57
2021/12/24 09:37:35;;;;;;;9.23;2.45;;;;;;;;;;5099607;28;20107;-58
2021/12/24 09:40:00;;;;;;;3.50;1.05;;;;;;;;;;5094702;28;20115;-57
2021/12/24 09:42:27;;;;;;;8.75;1.90;;;;;;;;;;5099557;28;20102;-57
2021/12/24 09:44:52;;;;;;;5.07;1.65;;;;;;;;;;5095719;28;20024;-57
2021/12/24 09:47:18;;;;;;;8.93;2.65;;;;;;;;;;5097743;28;20031;-59
2021/12/24 09:49:44;;;;;;;9.20;2.80;;;;;;;;;;5098650;28;20357;-58
2021/12/24 09:52:09;;;;;;;7.40;2.13;;;;;;;;;;5099905;28;20039;-57
2021/12/24 09:54:34;;;;;;;11.77;1.73;;;;;;;;;;5085931;28;20054;-59
2021/12/24 09:57:01;;;;;;;7.28;2.10;;;;;;;;;;5096191;28;20484;-57
2021/12/24 09:59:26;;;;;;;6.50;2.20;;;;;;;;;;5098076;28;20016;-57
2021/12/24 10:02:01;;;;;;;8.70;1.90;;;;;;;;;;5103338;28;20093;-58
2021/12/24 10:04:28;;;;;;;8.00;1.65;;;;;;;;;;5099100;28;20368;-58
2021/12/24 10:07:03;;;;;;;5.55;1.17;;;;;;;;;;5094268;28;20036;-58
2021/12/24 10:09:30;;;;;;;7.63;1.45;;;;;;;;;;5090878;28;20526;-59
2021/12/24 10:11:56;;;;;;;6.68;1.77;;;;;;;;;;5094436;28;20476;-58
2021/12/24 10:14:28;;;;;;;10.63;1.90;;;;;;;;;;5092591;28;20024;-59
2021/12/24 10:16:54;;;;;;;6.57;1.65;;;;;;;;;;5096568;28;20063;-58
2021/12/24 10:19:19;;;;;;;8.18;1.95;;;;;;;;;;5104545;28;20079;-58
2021/12/24 10:21:48;;;;;;;7.82;2.03;;;;;;;;;;5102578;28;20090;-59
2021/12/24 10:24:15;;;;;;;8.90;1.52;;;;;;;;;;5095980;28;20141;-58
2021/12/24 10:26:51;;;;;;;9.73;1.77;;;;;;;;;;5091580;28;20083;-59
2021/12/24 10:29:18;;;;;;;9.02;1.38;;;;;;;;;;5098640;28;20028;-58
2021/12/24 10:31:43;;;;;;;4.53;1.77;;;;;;;;;;5093501;28;20023;-59
2021/12/24 10:34:16;;;;;;;6.80;1.50;;;;;;;;;;5099130;28;20131;-59
2021/12/24 10:36:55;;;;;;;4.78;1.50;;;;;;;;;;5102618;28;20089;-58
2021/12/24 10:39:21;;;;;;;5.85;1.60;;;;;;;;;;5104479;28;20819;-59
2021/12/24 10:41:48;;;;;;;5.65;1.60;;;;;;;;;;5098431;28;20550;-60
2021/12/24 10:44:17;;;;;;;9.73;1.55;;;;;;;;;;5099922;28;20479;-59
2021/12/24 10:46:58;;;;;;;6.22;1.80;;;;;;;;;;5104133;28;20034;-60
2021/12/24 10:49:36;;;;;;;5.97;1.70;;;;;;;;;;5095433;28;20499;-59
2021/12/24 10:54:55;;;;;;;4.07;1.30;;;;;;;;;;5097698;28;20103;-59
2021/12/24 10:57:23;;;;;;;9.23;1.80;;;;;;;;;;5101696;28;20028;-58
2021/12/24 10:59:49;;;;;;;8.77;1.73;;;;;;;;;;5097681;28;20032;-60
2021/12/24 11:02:14;;;;;;;4.18;1.40;;;;;;;;;;5100900;28;20053;-58
2021/12/24 11:04:40;;;;;;;9.73;2.05;;;;;;;;;;5101430;28;20024;-59
2021/12/24 11:07:28;;;;;;;5.40;1.65;;;;;;;;;;5103059;28;20100;-58
2021/12/24 11:10:12;;;;;;;5.53;1.52;;;;;;;;;;5022818;28;20137;-59
2021/12/24 11:12:47;;;;;;;7.55;1.63;;;;;;;;;;5024759;28;20112;-60
2021/12/24 11:15:20;;;;;;;7.78;2.88;;;;;;;;;;5011666;28;20038;-59
2021/12/24 11:17:46;;;;;;;11.77;4.63;;;;;;;;;;5018476;28;20389;-59
2021/12/24 11:20:11;;;;;;;11.00;5.22;;;;;;;;;;5024253;28;20038;-58
2021/12/24 11:22:48;;;;;;;14.25;5.65;;;;;;;;;;5012639;28;20470;-58
2021/12/24 11:25:14;;;;;;;12.55;5.93;;;;;;;;;;4998911;28;20585;-60
2021/12/24 11:27:39;;;;;;;9.52;5.00;;;;;;;;;;5016487;28;20125;-59
2021/12/24 11:30:05;;;;;;;11.80;5.13;;;;;;;;;;5012806;28;20497;-59
2021/12/24 11:32:30;;;;;;;14.20;4.55;;;;;;;;;;5014193;28;20037;-59
2021/12/24 11:34:56;;;;;;;12.27;4.88;;;;;;;;;;5006574;28;20042;-58
2021/12/24 11:37:21;;;;;;;12.05;4.53;;;;;;;;;;5014668;28;20623;-59
2021/12/24 11:39:46;;;;;;;14.63;4.97;;;;;;;;;;5018188;28;20038;-60
2021/12/24 11:42:13;;;;;;;9.70;4.18;;;;;;;;;;5015018;28;20564;-60
2021/12/24 11:44:38;;;;;;;11.25;4.38;;;;;;;;;;5012069;28;20537;-60
2021/12/24 11:47:04;;;;;;;9.95;4.00;;;;;;;;;;5061784;28;20040;-60
2021/12/24 11:49:29;;;;;;;11.40;4.40;;;;;;;;;;5104263;28;20047;-60
2021/12/24 11:51:55;;;;;;;8.15;3.95;;;;;;;;;;5105177;28;20043;-60
2021/12/24 11:54:20;;;;;;;11.75;3.97;;;;;;;;;;5104676;28;20117;-60
2021/12/24 11:56:47;;;;;;;9.80;3.83;;;;;;;;;;5094833;28;20112;-59
2021/12/24 11:59:13;;;;;;;9.35;3.72;;;;;;;;;;5097325;28;20038;-59
2021/12/24 12:01:40;;;;;;;11.15;3.72;;;;;;;;;;5090506;28;20032;-60
2021/12/24 12:04:12;;;;;;;7.85;3.95;;;;;;;;;;5095930;28;20067;-60
2021/12/24 12:06:37;;;;;;;11.52;3.90;;;;;;;;;;5101693;28;20055;-59
2021/12/24 12:09:07;;;;;;;7.28;3.22;;;;;;;;;;5106370;28;20040;-60
2021/12/24 12:11:34;;;;;;;8.13;4.03;;;;;;;;;;5092262;28;20107;-59
2021/12/24 12:14:04;;;;;;;10.43;3.10;;;;;;;;;;5101942;28;20464;-59
2021/12/24 12:16:29;;;;;;;10.27;3.00;;;;;;;;;;5089699;28;20424;-59
2021/12/24 12:19:17;;;;;;;10.70;3.90;;;;;;;;;;5090413;28;20032;-60
2021/12/24 12:22:10;;;;;;;8.15;2.97;;;;;;;;;;5087666;28;20452;-59
2021/12/24 12:24:57;;;;;;;7.05;2.92;;;;;;;;;;5089752;28;20161;-59
2021/12/24 12:27:29;;;;;;;7.88;3.13;;;;;;;;;;5088132;28;20074;-59
2021/12/24 12:29:54;;;;;;;8.82;3.13;;;;;;;;;;5093137;28;20097;-59
2021/12/24 12:32:24;;;;;;;11.10;2.90;;;;;;;;;;5097087;28;20016;-59
2021/12/24 12:34:50;;;;;;;7.28;2.63;;;;;;;;;;5099828;28;20486;-60
2021/12/24 12:37:17;;;;;;;7.30;2.95;;;;;;;;;;5095007;28;20025;-60
2021/12/24 12:39:43;;;;;;;8.32;2.28;;;;;;;;;;5095618;28;20058;-59
2021/12/24 12:42:08;;;;;;;6.65;2.65;;;;;;;;;;5090671;28;20461;-59
2021/12/24 12:44:34;;;;;;;7.03;2.60;;;;;;;;;;5093657;28;20583;-60
2021/12/24 12:47:18;;;;;;;9.05;2.22;;;;;;;;;;5093259;28;20058;-59
2021/12/24 12:49:44;;;;;;;7.18;2.05;;;;;;;;;;5089571;28;20052;-58
2021/12/24 12:52:20;;;;;;;7.72;2.40;;;;;;;;;;5090780;28;20074;-59
2021/12/24 12:54:50;;;;;;;5.40;2.47;;;;;;;;;;5089605;28;20412;-58
2021/12/24 12:57:20;;;;;;;6.97;1.92;;;;;;;;;;5087881;28;20031;-58
2021/12/24 13:00:04;;;;;;;5.45;2.25;;;;;;;;;;5088829;28;20111;-58
2021/12/24 13:02:48;;;;;;;7.47;1.77;;;;;;;;;;5087899;28;20130;-59
2021/12/24 13:05:14;;;;;;;4.43;2.35;;;;;;;;;;5086843;28;20024;-58
2021/12/24 13:07:39;;;;;;;3.08;1.38;;;;;;;;;;5088922;28;20106;-58
2021/12/24 13:10:05;;;;;;;3.67;1.52;;;;;;;;;;5088002;28;20077;-59
2021/12/24 13:12:30;;;;;;;5.55;1.70;;;;;;;;;;5087913;28;20442;-59
2021/12/24 13:14:58;;;;;;;3.33;1.90;;;;;;;;;;5087743;28;20043;-60
2021/12/24 13:17:30;;;;;;;5.82;2.08;;;;;;;;;;5086901;28;20040;-60
2021/12/24 13:20:08;;;;;;;5.78;1.63;;;;;;;;;;5086885;28;20089;-59
2021/12/24 13:22:36;;;;;;;3.55;1.70;;;;;;;;;;5086361;28;20042;-59
2021/12/24 13:25:14;;;;;;;4.93;1.40;;;;;;;;;;5087905;28;20046;-60
2021/12/24 13:27:48;;;;;;;6.22;1.70;;;;;;;;;;5086192;28;20081;-59
2021/12/24 13:30:21;;;;;;;6.32;1.73;;;;;;;;;;5085641;28;20040;-59
2021/12/24 13:32:51;;;;;;;6.47;1.95;;;;;;;;;;5086861;28;20123;-58
2021/12/24 13:35:17;;;;;;;2.80;1.33;;;;;;;;;;5086483;28;20034;-58
2021/12/24 13:37:46;;;;;;;2.95;1.10;;;;;;;;;;5087705;28;20369;-59
2021/12/24 13:40:12;;;;;;;4.32;1.80;;;;;;;;;;5071166;28;20032;-59
2021/12/24 13:42:45;;;;;;;7.38;1.15;;;;;;;;;;5086894;28;20024;-59
2021/12/24 13:45:10;;;;;;;3.00;1.33;;;;;;;;;;5086562;28;20067;-59
2021/12/24 13:55:38;;;;;;;2.60;1.13;;;;;;;;;;5087411;28;20177;-58
2021/12/24 13:58:03;;;;;;;;;;;;;;;;;;5087191;28;20544;-58
2021/12/24 14:00:30;;;;;;;2.55;1.25;;;;;;;;;;5086740;28;20054;-58
2021/12/24 14:02:56;;;;;;;2.38;1.00;;;;;;;;;;5087022;28;20479;-59
2021/12/24 14:05:22;;;;;;;1.77;0.77;;;;;;;;;;5098655;28;20039;-60
2021/12/24 14:08:04;;;;;;;2.05;1.00;;;;;;;;;;5098053;28;20649;-58
2021/12/24 14:10:29;;;;;;;2.67;1.17;;;;;;;;;;5096592;28;20028;-59
2021/12/24 14:13:02;;;;;;;1.77;0.80;;;;;;;;;;5087097;28;20608;-59
2021/12/24 14:15:29;;;;;;;1.85;0.88;;;;;;;;;;5093167;28;20038;-58
2021/12/24 14:21:44;;;;;;;2.40;0.85;;;;;;;;;;5058526;28;20033;-58
2021/12/24 14:23:33;;;;;;;1.75;0.90;;;;;;;;;;5042380;28;20037;-57
2021/12/24 14:26:00;;;;;;;0.98;0.50;;;;;;;;;;5044382;28;20037;-58
2021/12/24 14:28:25;;;;;;;1.63;1.23;;;;;;;;;;5045122;28;20036;-57
2021/12/24 14:30:57;;;;;;;1.77;0.82;;;;;;;;;;5043803;28;20515;-58
2021/12/24 14:33:22;;;;;;;1.08;0.77;;;;;;;;;;5027573;28;20029;-58
2021/12/24 14:35:52;;;;;;;1.80;0.50;;;;;;;;;;5041726;28;20033;-58
2021/12/24 14:38:18;;;;;;;1.13;0.70;;;;;;;;;;5046519;28;20116;-58
2021/12/24 14:40:43;;;;;;;1.50;1.05;;;;;;;;;;5043938;28;20108;-58
2021/12/24 14:43:12;;;;;;;1.42;0.82;;;;;;;;;;5044402;28;20166;-57
2021/12/24 14:45:39;;;;;;;1.25;0.55;;;;;;;;;;5045509;28;20401;-57
2021/12/24 14:48:04;;;;;;;1.00;0.55;;;;;;;;;;5043549;28;20025;-57
2021/12/24 14:50:35;;;;;;;1.20;0.90;;;;;;;;;;5042420;28;20079;-58
2021/12/24 14:53:01;;;;;;;;;;;;;;;;;;5042626;28;20480;-57
2021/12/24 14:55:26;;;;;;;1.90;0.80;;;;;;;;;;5050794;28;20004;-57
2021/12/24 14:57:53;;;;;;;1.40;0.68;;;;;;;;;;5063207;28;20460;-58
2021/12/24 15:00:21;;;;;;;0.75;0.55;;;;;;;;;;5084684;28;20115;-56
2021/12/24 15:02:48;;;;;;;3.17;1.10;;;;;;;;;;5083223;28;20044;-57
2021/12/24 15:05:27;;;;;;;1.45;0.85;;;;;;;;;;5082134;28;20054;-58
2021/12/24 15:07:52;;;;;;;2.58;0.60;;;;;;;;;;5083589;28;20487;-57
2021/12/24 15:10:18;;;;;;;2.88;0.65;;;;;;;;;;5084119;28;20078;-58
2021/12/24 15:12:48;;;;;;;1.35;0.75;;;;;;;;;;5083144;28;20058;-58
2021/12/24 15:15:13;;;;;;;3.17;0.60;;;;;;;;;;5078252;28;20035;-58
2021/12/24 15:17:43;;;;;;;0.60;0.45;;;;;;;;;;5083670;28;20044;-59
2021/12/24 15:20:09;;;;;;;1.80;0.73;;;;;;;;;;5083773;28;20028;-56
2021/12/24 15:22:34;;;;;;;0.98;0.52;;;;;;;;;;5086892;28;20031;-59
2021/12/24 15:24:59;;;;;;;0.98;0.60;;;;;;;;;;5087582;28;20498;-58
2021/12/24 15:27:32;;;;;;;0.50;0.50;;;;;;;;;;5091986;28;20040;-60
2021/12/24 15:30:01;;;;;;;0.90;0.50;;;;;;;;;;5085657;28;20040;-59
2021/12/24 15:32:26;;;;;;;2.53;1.35;;;;;;;;;;5086866;28;20105;-60
2021/12/24 15:34:52;;;;;;;0.50;0.50;;;;;;;;;;5088728;28;20066;-59
2021/12/24 15:37:17;;;;;;;0.47;0.47;;;;;;;;;;5087086;28;20039;-59
2021/12/24 15:39:43;;;;;;;2.05;0.98;;;;;;;;;;5089476;28;20047;-59
2021/12/24 15:42:08;;;;;;;1.25;0.60;;;;;;;;;;5112525;27;20024;-58
2021/12/24 15:44:35;;;;;;;0.93;0.70;;;;;;;;;;5093844;28;20567;-58
2021/12/24 15:47:02;;;;;;;1.63;0.60;;;;;;;;;;5095056;28;20019;-59
2021/12/24 15:49:27;;;;;;;5.65;0.73;;;;;;;;;;5091616;28;20500;-58
2021/12/24 15:51:52;;;;;;;2.50;0.80;;;;;;;;;;5099184;28;20115;-58
2021/12/24 15:54:17;;;;;;;0.85;0.60;;;;;;;;;;5082579;28;20133;-59
2021/12/24 15:56:43;;;;;;;1.13;0.57;;;;;;;;;;5097727;28;20635;-58
2021/12/24 15:59:08;;;;;;;1.17;0.80;;;;;;;;;;5099698;28;20512;-56
2021/12/24 16:01:34;;;;;;;0.82;0.60;;;;;;;;;;5084594;28;20032;-58
2021/12/24 16:03:59;;;;;;;0.43;0.35;;;;;;;;;;5085743;28;20040;-58
2021/12/24 16:06:24;;;;;;;1.00;0.70;;;;;;;;;;5089345;28;20492;-59
2021/12/24 16:08:49;;;;;;;1.60;0.80;;;;;;;;;;5084604;28;20511;-59
2021/12/24 16:11:15;;;;;;;1.95;0.90;;;;;;;;;;5084519;28;20028;-59
2021/12/24 16:13:40;;;;;;;1.35;0.80;;;;;;;;;;5085527;28;20024;-58
2021/12/24 16:16:06;;;;;;;1.42;0.63;;;;;;;;;;5085752;28;20719;-58
2021/12/24 16:18:31;;;;;;;2.13;0.68;;;;;;;;;;5085372;28;20031;-58
2021/12/24 16:20:57;;;;;;;2.15;0.73;;;;;;;;;;5086716;28;20028;-58
2021/12/24 16:23:23;;;;;;;1.10;0.95;;;;;;;;;;5095860;27;20617;-57
2021/12/24 16:25:48;;;;;;;2.00;0.90;;;;;;;;;;5086857;28;20091;-57
2021/12/24 16:28:13;;;;;;;0.80;0.70;;;;;;;;;;5086224;28;20024;-58
2021/12/24 16:30:39;;;;;;;1.50;1.10;;;;;;;;;;5085305;28;20036;-58
2021/12/24 16:33:04;;;;;;;2.40;0.90;;;;;;;;;;5085237;28;20479;-58
2021/12/24 16:35:32;;;;;;;1.08;0.80;;;;;;;;;;5086601;28;20036;-58